sensor_id;sensor_type;location;lat;lon;timestamp;P1;durP1;ratioP1;P2;durP2;ratioP2
6438;SDS011;3252;52.540;13.290;2022-12-18T00:00:09;64.03;;;33.10;;
6438;SDS011;3252;52.540;13.290;2022-12-18T00:02:15;55.20;;;26.77;;
6438;SDS011;3252;52.540;13.290;2022-12-18T00:04:18;49.13;;;25.17;;
6438;SDS011;3252;52.540;13.290;2022-12-18T00:06:23;46.63;;;25.43;;
6438;SDS011;3252;52.540;13.290;2022-12-18T00:08:27;49.20;;;25.20;;
6438;SDS011;3252;52.540;13.290;2022-12-18T00:10:31;49.97;;;24.57;;
6438;SDS011;3252;52.540;13.290;2022-12-18T00:12:33;47.63;;;24.67;;
6438;SDS011;3252;52.540;13.290;2022-12-18T00:14:35;45.77;;;24.03;;
6438;SDS011;3252;52.540;13.290;2022-12-18T00:16:37;54.00;;;26.37;;
6438;SDS011;3252;52.540;13.290;2022-12-18T00:18:42;56.03;;;27.53;;
6438;SDS011;3252;52.540;13.290;2022-12-18T00:20:44;52.97;;;26.70;;
6438;SDS011;3252;52.540;13.290;2022-12-18T00:22:46;57.27;;;26.13;;
6438;SDS011;3252;52.540;13.290;2022-12-18T00:24:48;53.67;;;26.67;;
6438;SDS011;3252;52.540;13.290;2022-12-18T00:26:52;50.63;;;26.77;;
6438;SDS011;3252;52.540;13.290;2022-12-18T00:28:54;53.87;;;25.97;;
6438;SDS011;3252;52.540;13.290;2022-12-18T00:31:00;57.03;;;27.30;;
6438;SDS011;3252;52.540;13.290;2022-12-18T00:33:03;54.93;;;27.07;;
6438;SDS011;3252;52.540;13.290;2022-12-18T00:35:06;52.53;;;26.13;;
6438;SDS011;3252;52.540;13.290;2022-12-18T00:37:09;46.70;;;24.93;;
6438;SDS011;3252;52.540;13.290;2022-12-18T00:39:11;51.23;;;25.73;;
6438;SDS011;3252;52.540;13.290;2022-12-18T00:41:14;52.80;;;26.37;;
6438;SDS011;3252;52.540;13.290;2022-12-18T00:43:40;49.00;;;24.97;;
6438;SDS011;3252;52.540;13.290;2022-12-18T00:45:41;52.40;;;24.87;;
6438;SDS011;3252;52.540;13.290;2022-12-18T00:47:45;52.17;;;26.33;;
6438;SDS011;3252;52.540;13.290;2022-12-18T00:49:48;49.45;;;24.95;;
6438;SDS011;3252;52.540;13.290;2022-12-18T00:51:50;51.70;;;25.33;;
6438;SDS011;3252;52.540;13.290;2022-12-18T00:53:55;48.23;;;23.07;;
6438;SDS011;3252;52.540;13.290;2022-12-18T00:55:58;52.83;;;26.20;;
6438;SDS011;3252;52.540;13.290;2022-12-18T00:58:00;52.90;;;25.67;;
6438;SDS011;3252;52.540;13.290;2022-12-18T01:00:05;46.83;;;24.37;;
6438;SDS011;3252;52.540;13.290;2022-12-18T01:02:09;55.60;;;25.83;;
6438;SDS011;3252;52.540;13.290;2022-12-18T01:04:14;48.73;;;24.27;;
6438;SDS011;3252;52.540;13.290;2022-12-18T01:06:19;48.07;;;23.73;;
6438;SDS011;3252;52.540;13.290;2022-12-18T01:08:24;48.93;;;24.73;;
6438;SDS011;3252;52.540;13.290;2022-12-18T01:10:27;50.40;;;24.97;;
6438;SDS011;3252;52.540;13.290;2022-12-18T01:12:31;50.20;;;24.57;;
6438;SDS011;3252;52.540;13.290;2022-12-18T01:14:37;50.60;;;25.20;;
6438;SDS011;3252;52.540;13.290;2022-12-18T01:16:42;50.73;;;25.10;;
6438;SDS011;3252;52.540;13.290;2022-12-18T01:18:44;47.33;;;24.43;;
6438;SDS011;3252;52.540;13.290;2022-12-18T01:20:47;49.37;;;24.67;;
6438;SDS011;3252;52.540;13.290;2022-12-18T01:22:50;51.57;;;25.23;;
6438;SDS011;3252;52.540;13.290;2022-12-18T01:24:52;53.17;;;26.03;;
6438;SDS011;3252;52.540;13.290;2022-12-18T01:26:56;50.30;;;25.70;;
6438;SDS011;3252;52.540;13.290;2022-12-18T01:28:59;49.57;;;25.63;;
6438;SDS011;3252;52.540;13.290;2022-12-18T01:31:14;48.37;;;23.93;;
6438;SDS011;3252;52.540;13.290;2022-12-18T01:33:19;55.87;;;26.70;;
6438;SDS011;3252;52.540;13.290;2022-12-18T01:35:22;51.57;;;25.23;;
6438;SDS011;3252;52.540;13.290;2022-12-18T01:37:24;49.87;;;24.97;;
6438;SDS011;3252;52.540;13.290;2022-12-18T01:39:26;52.63;;;25.60;;
6438;SDS011;3252;52.540;13.290;2022-12-18T01:41:29;56.83;;;26.23;;
6438;SDS011;3252;52.540;13.290;2022-12-18T01:43:53;56.17;;;26.57;;
6438;SDS011;3252;52.540;13.290;2022-12-18T01:45:58;50.03;;;24.97;;
6438;SDS011;3252;52.540;13.290;2022-12-18T01:48:00;54.80;;;26.63;;
6438;SDS011;3252;52.540;13.290;2022-12-18T01:50:07;50.53;;;24.60;;
6438;SDS011;3252;52.540;13.290;2022-12-18T01:52:12;52.30;;;25.43;;
6438;SDS011;3252;52.540;13.290;2022-12-18T01:54:15;55.77;;;26.97;;
6438;SDS011;3252;52.540;13.290;2022-12-18T01:56:18;53.43;;;26.83;;
6438;SDS011;3252;52.540;13.290;2022-12-18T01:58:24;57.07;;;25.33;;
6438;SDS011;3252;52.540;13.290;2022-12-18T02:00:31;64.30;;;28.47;;
6438;SDS011;3252;52.540;13.290;2022-12-18T02:02:35;56.33;;;29.27;;
6438;SDS011;3252;52.540;13.290;2022-12-18T02:04:37;63.27;;;29.43;;
6438;SDS011;3252;52.540;13.290;2022-12-18T02:06:44;58.03;;;27.80;;
6438;SDS011;3252;52.540;13.290;2022-12-18T02:08:49;63.00;;;30.03;;
6438;SDS011;3252;52.540;13.290;2022-12-18T02:11:03;61.70;;;28.53;;
6438;SDS011;3252;52.540;13.290;2022-12-18T02:13:11;58.67;;;28.23;;
6438;SDS011;3252;52.540;13.290;2022-12-18T02:15:18;59.87;;;28.10;;
6438;SDS011;3252;52.540;13.290;2022-12-18T02:17:27;65.73;;;30.83;;
6438;SDS011;3252;52.540;13.290;2022-12-18T02:19:39;63.10;;;27.67;;
6438;SDS011;3252;52.540;13.290;2022-12-18T02:21:53;60.70;;;30.17;;
6438;SDS011;3252;52.540;13.290;2022-12-18T02:24:02;59.30;;;27.93;;
6438;SDS011;3252;52.540;13.290;2022-12-18T02:26:17;62.50;;;28.97;;
6438;SDS011;3252;52.540;13.290;2022-12-18T02:28:26;57.07;;;27.40;;
6438;SDS011;3252;52.540;13.290;2022-12-18T02:30:34;63.77;;;29.00;;
6438;SDS011;3252;52.540;13.290;2022-12-18T02:32:39;57.70;;;27.00;;
6438;SDS011;3252;52.540;13.290;2022-12-18T02:34:44;56.10;;;27.53;;
6438;SDS011;3252;52.540;13.290;2022-12-18T02:36:50;52.40;;;26.10;;
6438;SDS011;3252;52.540;13.290;2022-12-18T02:38:54;54.70;;;27.53;;
6438;SDS011;3252;52.540;13.290;2022-12-18T02:40:59;54.87;;;27.47;;
6438;SDS011;3252;52.540;13.290;2022-12-18T02:43:08;53.57;;;26.53;;
6438;SDS011;3252;52.540;13.290;2022-12-18T02:45:11;51.90;;;27.13;;
6438;SDS011;3252;52.540;13.290;2022-12-18T02:47:15;50.33;;;24.93;;
6438;SDS011;3252;52.540;13.290;2022-12-18T02:49:26;52.77;;;26.60;;
6438;SDS011;3252;52.540;13.290;2022-12-18T02:51:38;123.67;;;60.30;;
6438;SDS011;3252;52.540;13.290;2022-12-18T02:53:50;60.83;;;30.20;;
6438;SDS011;3252;52.540;13.290;2022-12-18T02:56:01;57.37;;;26.77;;
6438;SDS011;3252;52.540;13.290;2022-12-18T02:58:10;53.40;;;25.60;;
6438;SDS011;3252;52.540;13.290;2022-12-18T03:00:19;56.77;;;27.70;;
6438;SDS011;3252;52.540;13.290;2022-12-18T03:02:25;55.40;;;26.20;;
6438;SDS011;3252;52.540;13.290;2022-12-18T03:04:37;56.33;;;26.70;;
6438;SDS011;3252;52.540;13.290;2022-12-18T03:06:45;54.47;;;26.97;;
6438;SDS011;3252;52.540;13.290;2022-12-18T03:08:51;52.97;;;25.57;;
6438;SDS011;3252;52.540;13.290;2022-12-18T03:11:01;54.70;;;26.53;;
6438;SDS011;3252;52.540;13.290;2022-12-18T03:13:10;53.70;;;25.77;;
6438;SDS011;3252;52.540;13.290;2022-12-18T03:15:16;51.47;;;25.27;;
6438;SDS011;3252;52.540;13.290;2022-12-18T03:17:25;52.93;;;25.43;;
6438;SDS011;3252;52.540;13.290;2022-12-18T03:19:31;52.70;;;25.30;;
6438;SDS011;3252;52.540;13.290;2022-12-18T03:21:37;52.63;;;25.10;;
6438;SDS011;3252;52.540;13.290;2022-12-18T03:23:44;53.43;;;26.40;;
6438;SDS011;3252;52.540;13.290;2022-12-18T03:25:51;55.87;;;25.30;;
6438;SDS011;3252;52.540;13.290;2022-12-18T03:27:58;53.80;;;25.17;;
6438;SDS011;3252;52.540;13.290;2022-12-18T03:30:06;49.17;;;24.43;;
6438;SDS011;3252;52.540;13.290;2022-12-18T03:32:14;51.33;;;24.53;;
6438;SDS011;3252;52.540;13.290;2022-12-18T03:34:23;48.47;;;24.43;;
6438;SDS011;3252;52.540;13.290;2022-12-18T03:36:30;47.70;;;22.70;;
6438;SDS011;3252;52.540;13.290;2022-12-18T03:38:33;53.77;;;23.73;;
6438;SDS011;3252;52.540;13.290;2022-12-18T03:40:38;53.47;;;25.93;;
6438;SDS011;3252;52.540;13.290;2022-12-18T03:42:46;53.47;;;24.37;;
6438;SDS011;3252;52.540;13.290;2022-12-18T03:44:54;53.00;;;25.33;;
6438;SDS011;3252;52.540;13.290;2022-12-18T03:47:05;48.23;;;23.80;;
6438;SDS011;3252;52.540;13.290;2022-12-18T03:49:10;53.23;;;25.37;;
6438;SDS011;3252;52.540;13.290;2022-12-18T03:51:19;52.83;;;25.47;;
6438;SDS011;3252;52.540;13.290;2022-12-18T03:53:31;59.57;;;26.53;;
6438;SDS011;3252;52.540;13.290;2022-12-18T03:55:37;53.40;;;24.97;;
6438;SDS011;3252;52.540;13.290;2022-12-18T03:57:41;57.30;;;25.10;;
6438;SDS011;3252;52.540;13.290;2022-12-18T03:59:45;55.20;;;24.13;;
6438;SDS011;3252;52.540;13.290;2022-12-18T04:01:52;54.10;;;25.50;;
6438;SDS011;3252;52.540;13.290;2022-12-18T04:03:58;55.63;;;25.57;;
6438;SDS011;3252;52.540;13.290;2022-12-18T04:06:06;50.43;;;24.20;;
6438;SDS011;3252;52.540;13.290;2022-12-18T04:08:09;54.57;;;25.03;;
6438;SDS011;3252;52.540;13.290;2022-12-18T04:10:16;51.43;;;25.60;;
6438;SDS011;3252;52.540;13.290;2022-12-18T04:12:20;54.27;;;24.93;;
6438;SDS011;3252;52.540;13.290;2022-12-18T04:14:22;54.33;;;26.93;;
6438;SDS011;3252;52.540;13.290;2022-12-18T04:16:28;59.87;;;26.03;;
6438;SDS011;3252;52.540;13.290;2022-12-18T04:18:34;55.77;;;25.53;;
6438;SDS011;3252;52.540;13.290;2022-12-18T04:20:37;59.40;;;26.13;;
6438;SDS011;3252;52.540;13.290;2022-12-18T04:22:40;52.23;;;25.53;;
6438;SDS011;3252;52.540;13.290;2022-12-18T04:24:42;52.10;;;25.47;;
6438;SDS011;3252;52.540;13.290;2022-12-18T04:26:52;51.07;;;25.40;;
6438;SDS011;3252;52.540;13.290;2022-12-18T04:29:01;60.97;;;27.33;;
6438;SDS011;3252;52.540;13.290;2022-12-18T04:31:04;59.30;;;28.13;;
6438;SDS011;3252;52.540;13.290;2022-12-18T04:33:08;63.93;;;28.07;;
6438;SDS011;3252;52.540;13.290;2022-12-18T04:35:11;56.93;;;25.50;;
6438;SDS011;3252;52.540;13.290;2022-12-18T04:37:18;61.47;;;28.27;;
6438;SDS011;3252;52.540;13.290;2022-12-18T04:39:22;64.50;;;29.37;;
6438;SDS011;3252;52.540;13.290;2022-12-18T04:41:27;66.33;;;29.57;;
6438;SDS011;3252;52.540;13.290;2022-12-18T04:43:29;71.30;;;30.43;;
6438;SDS011;3252;52.540;13.290;2022-12-18T04:45:33;65.67;;;30.50;;
6438;SDS011;3252;52.540;13.290;2022-12-18T04:47:35;75.53;;;31.63;;
6438;SDS011;3252;52.540;13.290;2022-12-18T04:49:37;69.77;;;31.40;;
6438;SDS011;3252;52.540;13.290;2022-12-18T04:51:40;75.63;;;32.23;;
6438;SDS011;3252;52.540;13.290;2022-12-18T04:53:43;72.67;;;32.03;;
6438;SDS011;3252;52.540;13.290;2022-12-18T04:55:45;71.07;;;31.47;;
6438;SDS011;3252;52.540;13.290;2022-12-18T04:57:49;72.77;;;31.77;;
6438;SDS011;3252;52.540;13.290;2022-12-18T04:59:51;70.30;;;31.63;;
6438;SDS011;3252;52.540;13.290;2022-12-18T05:01:54;70.67;;;31.23;;
6438;SDS011;3252;52.540;13.290;2022-12-18T05:03:56;71.07;;;31.63;;
6438;SDS011;3252;52.540;13.290;2022-12-18T05:05:58;73.50;;;30.70;;
6438;SDS011;3252;52.540;13.290;2022-12-18T05:08:00;68.93;;;30.20;;
6438;SDS011;3252;52.540;13.290;2022-12-18T05:10:04;70.50;;;31.83;;
6438;SDS011;3252;52.540;13.290;2022-12-18T05:12:09;71.13;;;30.60;;
6438;SDS011;3252;52.540;13.290;2022-12-18T05:14:12;78.77;;;32.37;;
6438;SDS011;3252;52.540;13.290;2022-12-18T05:16:14;80.43;;;34.77;;
6438;SDS011;3252;52.540;13.290;2022-12-18T05:18:16;78.73;;;33.27;;
6438;SDS011;3252;52.540;13.290;2022-12-18T05:20:18;82.30;;;34.20;;
6438;SDS011;3252;52.540;13.290;2022-12-18T05:22:21;82.80;;;34.37;;
6438;SDS011;3252;52.540;13.290;2022-12-18T05:24:23;78.63;;;33.43;;
6438;SDS011;3252;52.540;13.290;2022-12-18T05:26:26;75.33;;;32.87;;
6438;SDS011;3252;52.540;13.290;2022-12-18T05:28:29;86.63;;;35.03;;
6438;SDS011;3252;52.540;13.290;2022-12-18T05:30:34;90.60;;;35.97;;
6438;SDS011;3252;52.540;13.290;2022-12-18T05:32:36;89.47;;;35.53;;
6438;SDS011;3252;52.540;13.290;2022-12-18T05:34:39;87.90;;;36.07;;
6438;SDS011;3252;52.540;13.290;2022-12-18T05:36:41;91.53;;;36.67;;
6438;SDS011;3252;52.540;13.290;2022-12-18T05:38:43;88.57;;;36.20;;
6438;SDS011;3252;52.540;13.290;2022-12-18T05:40:45;91.67;;;38.60;;
6438;SDS011;3252;52.540;13.290;2022-12-18T05:42:50;99.20;;;39.20;;
6438;SDS011;3252;52.540;13.290;2022-12-18T05:44:52;92.70;;;37.53;;
6438;SDS011;3252;52.540;13.290;2022-12-18T05:46:54;96.07;;;39.20;;
6438;SDS011;3252;52.540;13.290;2022-12-18T05:48:58;100.33;;;41.37;;
6438;SDS011;3252;52.540;13.290;2022-12-18T05:51:05;101.90;;;41.83;;
6438;SDS011;3252;52.540;13.290;2022-12-18T05:53:08;90.03;;;37.03;;
6438;SDS011;3252;52.540;13.290;2022-12-18T05:55:10;89.97;;;36.10;;
6438;SDS011;3252;52.540;13.290;2022-12-18T05:57:13;102.17;;;38.53;;
6438;SDS011;3252;52.540;13.290;2022-12-18T05:59:16;98.27;;;38.73;;
6438;SDS011;3252;52.540;13.290;2022-12-18T06:01:20;102.80;;;41.77;;
6438;SDS011;3252;52.540;13.290;2022-12-18T06:03:25;110.40;;;41.53;;
6438;SDS011;3252;52.540;13.290;2022-12-18T06:05:27;99.00;;;40.63;;
6438;SDS011;3252;52.540;13.290;2022-12-18T06:07:29;107.70;;;42.20;;
6438;SDS011;3252;52.540;13.290;2022-12-18T06:09:32;105.03;;;42.13;;
6438;SDS011;3252;52.540;13.290;2022-12-18T06:11:37;107.80;;;41.17;;
6438;SDS011;3252;52.540;13.290;2022-12-18T06:13:40;99.80;;;39.37;;
6438;SDS011;3252;52.540;13.290;2022-12-18T06:15:43;85.03;;;35.60;;
6438;SDS011;3252;52.540;13.290;2022-12-18T06:17:45;92.03;;;37.17;;
6438;SDS011;3252;52.540;13.290;2022-12-18T06:19:48;89.13;;;36.57;;
6438;SDS011;3252;52.540;13.290;2022-12-18T06:21:52;83.43;;;36.37;;
6438;SDS011;3252;52.540;13.290;2022-12-18T06:23:54;82.80;;;35.67;;
6438;SDS011;3252;52.540;13.290;2022-12-18T06:25:57;83.63;;;36.70;;
6438;SDS011;3252;52.540;13.290;2022-12-18T06:28:00;85.17;;;35.67;;
6438;SDS011;3252;52.540;13.290;2022-12-18T06:30:04;77.27;;;35.30;;
6438;SDS011;3252;52.540;13.290;2022-12-18T06:32:09;77.20;;;34.03;;
6438;SDS011;3252;52.540;13.290;2022-12-18T06:34:11;76.97;;;34.07;;
6438;SDS011;3252;52.540;13.290;2022-12-18T06:36:14;65.80;;;31.03;;
6438;SDS011;3252;52.540;13.290;2022-12-18T06:38:16;63.83;;;31.97;;
6438;SDS011;3252;52.540;13.290;2022-12-18T06:40:19;71.43;;;32.90;;
6438;SDS011;3252;52.540;13.290;2022-12-18T06:42:21;68.60;;;31.83;;
6438;SDS011;3252;52.540;13.290;2022-12-18T06:44:23;70.13;;;32.00;;
6438;SDS011;3252;52.540;13.290;2022-12-18T06:46:25;68.10;;;31.80;;
6438;SDS011;3252;52.540;13.290;2022-12-18T06:48:29;64.50;;;30.20;;
6438;SDS011;3252;52.540;13.290;2022-12-18T06:50:32;67.53;;;31.53;;
6438;SDS011;3252;52.540;13.290;2022-12-18T06:52:34;71.53;;;32.20;;
6438;SDS011;3252;52.540;13.290;2022-12-18T06:54:37;73.53;;;33.50;;
6438;SDS011;3252;52.540;13.290;2022-12-18T06:56:39;73.00;;;33.20;;
6438;SDS011;3252;52.540;13.290;2022-12-18T06:58:41;73.50;;;33.53;;
6438;SDS011;3252;52.540;13.290;2022-12-18T07:00:44;71.07;;;33.27;;
6438;SDS011;3252;52.540;13.290;2022-12-18T07:02:46;86.57;;;37.17;;
6438;SDS011;3252;52.540;13.290;2022-12-18T07:04:49;83.63;;;36.90;;
6438;SDS011;3252;52.540;13.290;2022-12-18T07:06:51;82.50;;;36.03;;
6438;SDS011;3252;52.540;13.290;2022-12-18T07:08:53;79.47;;;35.90;;
6438;SDS011;3252;52.540;13.290;2022-12-18T07:10:56;82.83;;;36.37;;
6438;SDS011;3252;52.540;13.290;2022-12-18T07:12:59;83.40;;;36.63;;
6438;SDS011;3252;52.540;13.290;2022-12-18T07:15:01;83.90;;;36.67;;
6438;SDS011;3252;52.540;13.290;2022-12-18T07:17:03;83.90;;;37.47;;
6438;SDS011;3252;52.540;13.290;2022-12-18T07:19:05;79.80;;;36.27;;
6438;SDS011;3252;52.540;13.290;2022-12-18T07:21:10;75.43;;;33.93;;
6438;SDS011;3252;52.540;13.290;2022-12-18T07:23:15;77.33;;;35.17;;
6438;SDS011;3252;52.540;13.290;2022-12-18T07:25:17;77.07;;;35.07;;
6438;SDS011;3252;52.540;13.290;2022-12-18T07:27:19;81.87;;;35.37;;
6438;SDS011;3252;52.540;13.290;2022-12-18T07:29:21;79.87;;;35.50;;
6438;SDS011;3252;52.540;13.290;2022-12-18T07:31:24;103.83;;;42.27;;
6438;SDS011;3252;52.540;13.290;2022-12-18T07:33:27;100.40;;;43.13;;
6438;SDS011;3252;52.540;13.290;2022-12-18T07:35:29;93.20;;;40.47;;
6438;SDS011;3252;52.540;13.290;2022-12-18T07:37:32;96.67;;;41.40;;
6438;SDS011;3252;52.540;13.290;2022-12-18T07:39:35;98.30;;;41.57;;
6438;SDS011;3252;52.540;13.290;2022-12-18T07:41:37;97.00;;;40.97;;
6438;SDS011;3252;52.540;13.290;2022-12-18T07:43:43;93.47;;;39.40;;
6438;SDS011;3252;52.540;13.290;2022-12-18T07:45:48;84.50;;;37.13;;
6438;SDS011;3252;52.540;13.290;2022-12-18T07:47:51;92.97;;;39.50;;
6438;SDS011;3252;52.540;13.290;2022-12-18T07:49:53;81.97;;;37.13;;
6438;SDS011;3252;52.540;13.290;2022-12-18T07:51:55;83.43;;;37.20;;
6438;SDS011;3252;52.540;13.290;2022-12-18T07:54:02;76.67;;;32.73;;
6438;SDS011;3252;52.540;13.290;2022-12-18T07:56:05;74.07;;;34.20;;
6438;SDS011;3252;52.540;13.290;2022-12-18T07:58:09;73.67;;;34.30;;
6438;SDS011;3252;52.540;13.290;2022-12-18T08:00:11;72.23;;;32.07;;
6438;SDS011;3252;52.540;13.290;2022-12-18T08:02:14;72.10;;;32.90;;
6438;SDS011;3252;52.540;13.290;2022-12-18T08:04:16;61.63;;;28.30;;
6438;SDS011;3252;52.540;13.290;2022-12-18T08:06:19;57.73;;;28.00;;
6438;SDS011;3252;52.540;13.290;2022-12-18T08:08:21;60.03;;;28.90;;
6438;SDS011;3252;52.540;13.290;2022-12-18T08:10:25;57.80;;;28.03;;
6438;SDS011;3252;52.540;13.290;2022-12-18T08:12:27;56.60;;;26.37;;
6438;SDS011;3252;52.540;13.290;2022-12-18T08:14:29;58.33;;;26.67;;
6438;SDS011;3252;52.540;13.290;2022-12-18T08:16:31;62.33;;;27.80;;
6438;SDS011;3252;52.540;13.290;2022-12-18T08:18:34;61.53;;;29.13;;
6438;SDS011;3252;52.540;13.290;2022-12-18T08:20:37;58.33;;;28.23;;
6438;SDS011;3252;52.540;13.290;2022-12-18T08:22:42;66.83;;;30.27;;
6438;SDS011;3252;52.540;13.290;2022-12-18T08:24:44;62.17;;;30.50;;
6438;SDS011;3252;52.540;13.290;2022-12-18T08:26:48;70.23;;;31.67;;
6438;SDS011;3252;52.540;13.290;2022-12-18T08:28:50;65.40;;;29.70;;
6438;SDS011;3252;52.540;13.290;2022-12-18T08:30:54;63.77;;;29.93;;
6438;SDS011;3252;52.540;13.290;2022-12-18T08:32:57;72.10;;;32.87;;
6438;SDS011;3252;52.540;13.290;2022-12-18T08:34:59;63.60;;;30.10;;
6438;SDS011;3252;52.540;13.290;2022-12-18T08:37:01;76.60;;;32.80;;
6438;SDS011;3252;52.540;13.290;2022-12-18T08:39:04;63.30;;;30.77;;
6438;SDS011;3252;52.540;13.290;2022-12-18T08:41:07;61.93;;;30.10;;
6438;SDS011;3252;52.540;13.290;2022-12-18T08:43:12;61.77;;;30.47;;
6438;SDS011;3252;52.540;13.290;2022-12-18T08:45:46;61.73;;;25.13;;
6438;SDS011;3252;52.540;13.290;2022-12-18T08:47:48;57.77;;;27.90;;
6438;SDS011;3252;52.540;13.290;2022-12-18T08:49:50;63.80;;;30.60;;
6438;SDS011;3252;52.540;13.290;2022-12-18T08:51:53;65.90;;;30.00;;
6438;SDS011;3252;52.540;13.290;2022-12-18T08:53:57;64.73;;;30.83;;
6438;SDS011;3252;52.540;13.290;2022-12-18T08:55:59;65.70;;;30.80;;
6438;SDS011;3252;52.540;13.290;2022-12-18T08:58:02;67.30;;;31.23;;
6438;SDS011;3252;52.540;13.290;2022-12-18T09:00:06;64.93;;;30.37;;
6438;SDS011;3252;52.540;13.290;2022-12-18T09:02:10;66.63;;;29.73;;
6438;SDS011;3252;52.540;13.290;2022-12-18T09:04:13;66.97;;;28.43;;
6438;SDS011;3252;52.540;13.290;2022-12-18T09:06:15;66.07;;;30.43;;
6438;SDS011;3252;52.540;13.290;2022-12-18T09:08:19;68.47;;;30.37;;
6438;SDS011;3252;52.540;13.290;2022-12-18T09:10:21;68.93;;;30.77;;
6438;SDS011;3252;52.540;13.290;2022-12-18T09:12:24;63.07;;;30.33;;
6438;SDS011;3252;52.540;13.290;2022-12-18T09:14:26;64.80;;;30.07;;
6438;SDS011;3252;52.540;13.290;2022-12-18T09:16:30;55.77;;;28.53;;
6438;SDS011;3252;52.540;13.290;2022-12-18T09:18:35;59.03;;;27.83;;
6438;SDS011;3252;52.540;13.290;2022-12-18T09:20:37;62.77;;;27.83;;
6438;SDS011;3252;52.540;13.290;2022-12-18T09:22:39;56.20;;;27.07;;
6438;SDS011;3252;52.540;13.290;2022-12-18T09:24:41;61.80;;;27.93;;
6438;SDS011;3252;52.540;13.290;2022-12-18T09:26:44;61.03;;;28.47;;
6438;SDS011;3252;52.540;13.290;2022-12-18T09:28:46;56.20;;;26.67;;
6438;SDS011;3252;52.540;13.290;2022-12-18T09:30:48;62.10;;;28.93;;
6438;SDS011;3252;52.540;13.290;2022-12-18T09:32:53;62.80;;;28.97;;
6438;SDS011;3252;52.540;13.290;2022-12-18T09:34:56;58.03;;;26.80;;
6438;SDS011;3252;52.540;13.290;2022-12-18T09:36:59;61.60;;;25.37;;
6438;SDS011;3252;52.540;13.290;2022-12-18T09:39:01;61.47;;;29.17;;
6438;SDS011;3252;52.540;13.290;2022-12-18T09:41:04;61.87;;;27.80;;
6438;SDS011;3252;52.540;13.290;2022-12-18T09:43:17;57.53;;;27.53;;
6438;SDS011;3252;52.540;13.290;2022-12-18T09:45:20;56.47;;;27.77;;
6438;SDS011;3252;52.540;13.290;2022-12-18T09:47:25;63.70;;;28.53;;
6438;SDS011;3252;52.540;13.290;2022-12-18T09:49:34;53.27;;;25.30;;
6438;SDS011;3252;52.540;13.290;2022-12-18T09:51:41;59.73;;;28.53;;
6438;SDS011;3252;52.540;13.290;2022-12-18T09:53:50;57.37;;;27.37;;
6438;SDS011;3252;52.540;13.290;2022-12-18T09:55:56;57.37;;;28.07;;
6438;SDS011;3252;52.540;13.290;2022-12-18T09:58:00;51.57;;;23.67;;
6438;SDS011;3252;52.540;13.290;2022-12-18T10:00:15;55.87;;;26.37;;
6438;SDS011;3252;52.540;13.290;2022-12-18T10:02:21;52.50;;;26.67;;
6438;SDS011;3252;52.540;13.290;2022-12-18T10:04:25;53.00;;;27.13;;
6438;SDS011;3252;52.540;13.290;2022-12-18T10:06:35;57.20;;;26.93;;
6438;SDS011;3252;52.540;13.290;2022-12-18T10:08:43;51.93;;;23.63;;
6438;SDS011;3252;52.540;13.290;2022-12-18T10:10:51;53.03;;;26.77;;
6438;SDS011;3252;52.540;13.290;2022-12-18T10:12:56;49.13;;;26.03;;
6438;SDS011;3252;52.540;13.290;2022-12-18T10:15:10;51.23;;;26.37;;
6438;SDS011;3252;52.540;13.290;2022-12-18T10:17:22;58.73;;;27.00;;
6438;SDS011;3252;52.540;13.290;2022-12-18T10:19:39;54.00;;;25.67;;
6438;SDS011;3252;52.540;13.290;2022-12-18T10:21:53;52.67;;;26.53;;
6438;SDS011;3252;52.540;13.290;2022-12-18T10:24:02;54.07;;;26.53;;
6438;SDS011;3252;52.540;13.290;2022-12-18T10:26:16;52.60;;;24.73;;
6438;SDS011;3252;52.540;13.290;2022-12-18T10:28:19;48.80;;;23.40;;
6438;SDS011;3252;52.540;13.290;2022-12-18T10:30:22;54.00;;;26.47;;
6438;SDS011;3252;52.540;13.290;2022-12-18T10:32:26;57.77;;;28.27;;
6438;SDS011;3252;52.540;13.290;2022-12-18T10:34:31;53.20;;;27.03;;
6438;SDS011;3252;52.540;13.290;2022-12-18T10:36:33;50.23;;;25.17;;
6438;SDS011;3252;52.540;13.290;2022-12-18T10:38:36;53.27;;;24.90;;
6438;SDS011;3252;52.540;13.290;2022-12-18T10:40:47;51.47;;;26.13;;
6438;SDS011;3252;52.540;13.290;2022-12-18T10:43:01;53.23;;;25.93;;
6438;SDS011;3252;52.540;13.290;2022-12-18T10:45:08;50.97;;;23.33;;
6438;SDS011;3252;52.540;13.290;2022-12-18T10:47:14;47.50;;;23.07;;
6438;SDS011;3252;52.540;13.290;2022-12-18T10:49:21;49.13;;;25.00;;
6438;SDS011;3252;52.540;13.290;2022-12-18T10:51:25;51.43;;;25.37;;
6438;SDS011;3252;52.540;13.290;2022-12-18T10:53:29;50.10;;;24.90;;
6438;SDS011;3252;52.540;13.290;2022-12-18T10:55:37;46.67;;;24.90;;
6438;SDS011;3252;52.540;13.290;2022-12-18T10:57:41;52.90;;;24.93;;
6438;SDS011;3252;52.540;13.290;2022-12-18T10:59:50;57.83;;;26.83;;
6438;SDS011;3252;52.540;13.290;2022-12-18T11:01:54;54.53;;;24.73;;
6438;SDS011;3252;52.540;13.290;2022-12-18T11:03:59;49.07;;;21.87;;
6438;SDS011;3252;52.540;13.290;2022-12-18T11:06:05;59.27;;;28.10;;
6438;SDS011;3252;52.540;13.290;2022-12-18T11:08:12;47.80;;;25.97;;
6438;SDS011;3252;52.540;13.290;2022-12-18T11:10:25;54.63;;;28.10;;
6438;SDS011;3252;52.540;13.290;2022-12-18T11:12:32;58.23;;;27.50;;
6438;SDS011;3252;52.540;13.290;2022-12-18T11:14:42;54.43;;;27.67;;
6438;SDS011;3252;52.540;13.290;2022-12-18T11:16:47;55.70;;;26.77;;
6438;SDS011;3252;52.540;13.290;2022-12-18T11:18:52;49.87;;;26.53;;
6438;SDS011;3252;52.540;13.290;2022-12-18T11:20:54;56.43;;;27.20;;
6438;SDS011;3252;52.540;13.290;2022-12-18T11:22:59;59.50;;;29.37;;
6438;SDS011;3252;52.540;13.290;2022-12-18T11:25:04;63.47;;;30.97;;
6438;SDS011;3252;52.540;13.290;2022-12-18T11:27:13;57.43;;;28.63;;
6438;SDS011;3252;52.540;13.290;2022-12-18T11:29:24;61.27;;;29.40;;
6438;SDS011;3252;52.540;13.290;2022-12-18T11:31:31;59.07;;;28.33;;
6438;SDS011;3252;52.540;13.290;2022-12-18T11:33:34;61.13;;;29.23;;
6438;SDS011;3252;52.540;13.290;2022-12-18T11:35:39;61.30;;;27.53;;
6438;SDS011;3252;52.540;13.290;2022-12-18T11:37:46;56.47;;;24.80;;
6438;SDS011;3252;52.540;13.290;2022-12-18T11:39:52;55.87;;;27.57;;
6438;SDS011;3252;52.540;13.290;2022-12-18T11:42:01;56.70;;;28.83;;
6438;SDS011;3252;52.540;13.290;2022-12-18T11:44:11;57.90;;;28.23;;
6438;SDS011;3252;52.540;13.290;2022-12-18T11:46:18;59.77;;;28.50;;
6438;SDS011;3252;52.540;13.290;2022-12-18T11:48:31;65.77;;;29.87;;
6438;SDS011;3252;52.540;13.290;2022-12-18T11:50:41;66.73;;;30.57;;
6438;SDS011;3252;52.540;13.290;2022-12-18T11:52:49;55.20;;;27.80;;
6438;SDS011;3252;52.540;13.290;2022-12-18T11:54:52;62.27;;;27.77;;
6438;SDS011;3252;52.540;13.290;2022-12-18T11:56:58;56.00;;;28.17;;
6438;SDS011;3252;52.540;13.290;2022-12-18T11:59:08;50.90;;;24.33;;
6438;SDS011;3252;52.540;13.290;2022-12-18T12:01:31;57.07;;;27.20;;
6438;SDS011;3252;52.540;13.290;2022-12-18T12:03:51;56.97;;;25.87;;
6438;SDS011;3252;52.540;13.290;2022-12-18T12:06:13;50.40;;;26.37;;
6438;SDS011;3252;52.540;13.290;2022-12-18T12:08:26;49.90;;;25.90;;
6438;SDS011;3252;52.540;13.290;2022-12-18T12:10:42;49.50;;;24.77;;
6438;SDS011;3252;52.540;13.290;2022-12-18T12:12:55;56.83;;;26.27;;
6438;SDS011;3252;52.540;13.290;2022-12-18T12:15:06;51.00;;;26.13;;
6438;SDS011;3252;52.540;13.290;2022-12-18T12:17:24;55.60;;;25.57;;
6438;SDS011;3252;52.540;13.290;2022-12-18T12:19:36;54.00;;;26.33;;
6438;SDS011;3252;52.540;13.290;2022-12-18T12:21:45;58.80;;;28.27;;